Time;durP1;ratioP1;P1;durP2;ratioP2;P2;SDS_P1;SDS_P2;PMS_P1;PMS_P2;Temp;Humidity;BMP_temperature;BMP_pressure;BME280_temperature;BME280_humidity;BME280_pressure;Samples;Min_cycle;Max_cycle;Signal;HPM_P1;HPM_P2
2021/06/21 00:01:42;;;;;;;9.80;5.75;;;;;;;20.08;66.04;99175.16;5043497;28;20025;-78
2021/06/21 00:04:08;;;;;;;8.15;4.88;;;;;;;19.85;66.88;99180.03;5039097;28;20021;-78
2021/06/21 00:06:34;;;;;;;9.05;5.75;;;;;;;19.77;67.26;99173.50;5042775;28;20392;-77
2021/06/21 00:08:59;;;;;;;7.55;5.43;;;;;;;19.82;67.16;99171.50;5037788;28;20044;-78
2021/06/21 00:11:25;;;;;;;8.52;4.85;;;;;;;19.81;67.28;99167.06;5045464;28;20087;-78
2021/06/21 00:13:50;;;;;;;10.23;5.65;;;;;;;19.81;67.48;99167.84;5049133;28;20036;-78
2021/06/21 00:16:16;;;;;;;7.85;5.95;;;;;;;19.95;67.25;99171.91;5047168;28;20112;-78
2021/06/21 00:18:41;;;;;;;6.43;4.75;;;;;;;19.97;66.96;99169.47;5042385;28;20548;-78
2021/06/21 00:21:07;;;;;;;10.00;5.32;;;;;;;19.96;66.61;99162.19;5048863;28;20070;-78
2021/06/21 00:23:32;;;;;;;5.38;4.88;;;;;;;20.18;66.05;99165.81;5049163;28;20029;-78
2021/06/21 00:25:58;;;;;;;6.45;4.68;;;;;;;20.17;65.66;99161.38;5047425;28;20029;-78
2021/06/21 00:28:23;;;;;;;7.93;5.25;;;;;;;20.25;65.12;99148.75;5046212;28;20036;-78
2021/06/21 00:30:49;;;;;;;9.43;5.07;;;;;;;20.32;65.00;99150.75;5050913;28;20029;-78
2021/06/21 00:33:15;;;;;;;10.10;5.07;;;;;;;20.34;64.17;99156.88;5050654;28;20469;-78
2021/06/21 00:35:41;;;;;;;10.35;6.28;;;;;;;20.28;64.56;99149.97;5049355;28;20544;-78
2021/06/21 00:38:07;;;;;;;10.07;4.97;;;;;;;20.36;64.03;99147.91;5039538;28;20033;-80
2021/06/21 00:40:35;;;;;;;12.77;4.85;;;;;;;20.37;63.92;99141.03;5047725;28;20029;-79
2021/06/21 00:43:00;;;;;;;9.00;4.55;;;;;;;20.45;63.66;99148.31;5050451;28;20083;-79
2021/06/21 00:45:26;;;;;;;11.52;5.95;;;;;;;20.50;63.11;99145.03;5049108;28;20059;-79
2021/06/21 00:47:53;;;;;;;11.48;7.45;;;;;;;20.46;62.87;99142.22;5050423;28;20072;-78
2021/06/21 00:50:20;;;;;;;14.05;6.28;;;;;;;20.30;63.18;99141.84;5050557;28;20037;-79
2021/06/21 00:52:46;;;;;;;8.00;4.95;;;;;;;20.29;63.65;99134.56;5050191;28;20499;-80
2021/06/21 00:55:13;;;;;;;12.57;5.45;;;;;;;20.19;63.46;99134.16;5048794;28;20052;-78
2021/06/21 00:57:39;;;;;;;11.27;4.82;;;;;;;20.28;63.44;99138.63;5050058;28;20036;-80
2021/06/21 01:00:14;;;;;;;12.95;5.13;;;;;;;20.23;63.46;99137.00;5048920;28;20059;-79
2021/06/21 01:02:41;;;;;;;12.45;4.50;;;;;;;20.17;64.09;99133.78;5050172;28;20157;-78
2021/06/21 01:05:09;;;;;;;9.30;4.78;;;;;;;20.15;63.57;99143.91;5049095;28;20061;-79
2021/06/21 01:07:36;;;;;;;10.98;4.70;;;;;;;20.11;63.76;99138.25;5050143;28;20037;-81
2021/06/21 01:10:04;;;;;;;8.10;4.75;;;;;;;20.15;63.88;99138.22;5048877;28;20025;-78
2021/06/21 01:12:48;;;;;;;10.70;4.97;;;;;;;20.12;64.14;99141.91;5048723;28;20040;-80
2021/06/21 01:15:40;;;;;;;17.67;5.28;;;;;;;20.17;64.08;99136.59;5048613;28;20041;-78
2021/06/21 01:18:14;;;;;;;12.65;4.53;;;;;;;20.16;64.14;99131.34;5044941;28;20461;-78
2021/06/21 01:20:55;;;;;;;11.48;5.43;;;;;;;20.08;64.10;99138.25;5040037;28;20575;-81
2021/06/21 01:23:57;;;;;;;10.70;5.28;;;;;;;19.89;64.77;99128.91;5049882;28;20028;-79
2021/06/21 01:26:33;;;;;;;18.98;5.60;;;;;;;19.80;65.16;99129.34;5048739;28;20041;-78
2021/06/21 01:29:11;;;;;;;16.30;6.07;;;;;;;19.81;65.64;99133.00;5048561;28;20095;-80
2021/06/21 01:31:53;;;;;;;8.77;5.03;;;;;;;19.76;65.71;99128.53;5048732;28;20418;-80
2021/06/21 01:34:21;;;;;;;8.82;5.40;;;;;;;19.71;65.64;99121.25;5048859;28;20025;-80
2021/06/21 01:36:49;;;;;;;9.60;5.05;;;;;;;19.69;65.88;99103.81;5053752;28;20395;-81
2021/06/21 01:39:16;;;;;;;11.90;6.55;;;;;;;19.71;65.89;99100.56;5035672;28;20033;-80
2021/06/21 01:41:44;;;;;;;8.10;5.88;;;;;;;19.59;66.34;99096.91;5046504;28;20028;-79
2021/06/21 01:44:12;;;;;;;9.88;5.60;;;;;;;19.50;66.79;99103.00;5053439;28;20506;-80
2021/06/21 01:46:39;;;;;;;14.73;5.72;;;;;;;19.44;66.79;99110.31;5052651;28;20037;-80
2021/06/21 01:49:10;;;;;;;14.90;6.47;;;;;;;19.59;66.30;99104.63;5052190;28;20018;-80
2021/06/21 01:51:37;;;;;;;13.82;6.35;;;;;;;19.59;65.65;99094.09;5049171;28;20033;-81
2021/06/21 01:54:05;;;;;;;11.10;5.22;;;;;;;19.41;66.07;99096.13;5047292;28;20036;-81
2021/06/21 01:56:37;;;;;;;17.05;6.70;;;;;;;19.35;66.19;99099.34;5032324;28;20554;-81
2021/06/21 01:59:06;;;;;;;20.42;6.38;;;;;;;19.29;66.29;99092.47;5048673;28;20124;-78
2021/06/21 02:01:33;;;;;;;14.13;5.75;;;;;;;19.26;66.66;99098.13;5052200;28;20044;-79
2021/06/21 02:04:01;;;;;;;12.70;5.95;;;;;;;19.24;66.61;99094.91;5053329;28;20503;-81
2021/06/21 02:06:29;;;;;;;11.50;5.47;;;;;;;19.16;66.71;99096.91;5052227;28;20057;-79
2021/06/21 02:08:56;;;;;;;18.17;6.40;;;;;;;19.10;66.80;99105.00;5048691;28;20033;-80
2021/06/21 02:11:25;;;;;;;11.15;6.28;;;;;;;19.06;66.77;99113.50;5050684;28;20056;-79
2021/06/21 02:13:51;;;;;;;9.02;5.32;;;;;;;18.99;66.75;99124.78;5053111;28;20402;-78
2021/06/21 02:16:18;;;;;;;11.80;6.25;;;;;;;18.91;67.09;99123.94;5053249;28;20116;-79
2021/06/21 02:18:47;;;;;;;9.38;5.00;;;;;;;18.86;67.15;99127.19;5052776;28;20056;-81
2021/06/21 02:21:13;;;;;;;24.63;5.80;;;;;;;18.81;67.09;99124.72;5051686;28;20495;-78
2021/06/21 02:23:39;;;;;;;10.63;5.00;;;;;;;18.80;67.22;99125.94;5051597;28;20454;-79
2021/06/21 02:26:05;;;;;;;13.82;5.30;;;;;;;18.80;66.85;99121.09;5051705;28;20529;-81
2021/06/21 02:28:32;;;;;;;7.72;4.63;;;;;;;18.91;66.62;99123.16;5052741;28;20483;-79
2021/06/21 02:30:59;;;;;;;11.68;4.43;;;;;;;19.08;66.25;99124.44;5052776;28;20112;-79
2021/06/21 02:33:25;;;;;;;7.82;4.78;;;;;;;19.20;65.71;99132.56;5052670;28;20033;-78
2021/06/21 02:35:51;;;;;;;21.48;5.35;;;;;;;19.40;65.10;99132.16;5052673;28;20037;-81
2021/06/21 02:38:18;;;;;;;12.45;4.78;;;;;;;19.34;65.13;99133.78;5052576;28;20037;-79
2021/06/21 02:40:44;;;;;;;12.88;5.10;;;;;;;19.33;65.11;99132.19;5052899;28;20098;-80
2021/06/21 02:43:09;;;;;;;8.85;4.20;;;;;;;19.32;65.12;99127.72;5052613;28;20037;-80
2021/06/21 02:45:35;;;;;;;23.58;6.43;;;;;;;19.29;65.05;99132.16;5052084;28;20384;-79
2021/06/21 02:48:03;;;;;;;12.55;5.07;;;;;;;19.28;64.93;99132.56;5051659;28;20513;-78
2021/06/21 02:50:29;;;;;;;20.27;6.20;;;;;;;19.20;65.39;99141.06;5052428;28;20537;-78
2021/06/21 02:53:12;;;;;;;13.38;5.28;;;;;;;19.26;65.41;99137.81;5051118;28;20037;-81
2021/06/21 02:56:05;;;;;;;12.95;5.40;;;;;;;19.30;65.51;99130.94;5050989;28;20033;-81
2021/06/21 02:58:35;;;;;;;14.00;5.32;;;;;;;19.28;65.21;99135.41;5036734;28;20033;-81
2021/06/21 03:01:04;;;;;;;8.90;5.07;;;;;;;19.28;65.38;99135.41;5040512;28;20032;-79
2021/06/21 03:03:38;;;;;;;8.98;5.53;;;;;;;19.27;65.52;99136.59;5050344;28;20116;-78
2021/06/21 03:06:06;;;;;;;13.05;5.93;;;;;;;19.40;65.33;99145.56;5037758;28;20388;-80
2021/06/21 03:08:33;;;;;;;16.13;4.75;;;;;;;19.46;64.86;99147.59;5033094;28;20040;-79
2021/06/21 03:10:59;;;;;;;13.77;5.30;;;;;;;19.50;64.70;99148.38;5036179;28;20115;-80
2021/06/21 03:13:27;;;;;;;18.58;5.25;;;;;;;19.62;64.48;99137.84;5047340;28;20033;-80
2021/06/21 03:15:55;;;;;;;30.83;6.10;;;;;;;19.46;64.59;99136.22;5034543;28;20037;-79
2021/06/21 03:18:21;;;;;;;11.77;6.57;;;;;;;19.41;64.89;99139.44;5037781;28;20048;-80
2021/06/21 03:20:58;;;;;;;20.50;6.28;;;;;;;19.43;65.29;99144.72;5038816;28;20033;-79
2021/06/21 03:23:27;;;;;;;10.05;5.80;;;;;;;19.48;65.66;99144.31;5050690;28;20037;-75
2021/06/21 03:25:54;;;;;;;6.35;5.53;;;;;;;19.60;64.91;99131.78;5038803;28;20387;-83
2021/06/21 03:28:21;;;;;;;11.73;5.90;;;;;;;19.72;64.65;99137.03;5041278;28;20021;-79
2021/06/21 03:31:07;;;;;;;14.02;6.03;;;;;;;19.76;64.52;99131.38;5050510;28;20486;-82
2021/06/21 03:33:33;;;;;;;10.38;6.65;;;;;;;19.75;64.48;99116.38;5051547;28;20029;-75
2021/06/21 03:35:59;;;;;;;14.43;6.00;;;;;;;19.81;64.36;99121.66;5051970;28;20041;-77
2021/06/21 03:38:27;;;;;;;20.50;6.30;;;;;;;19.72;64.83;99128.53;5051509;28;20029;-77
2021/06/21 03:40:57;;;;;;;20.35;6.35;;;;;;;19.71;65.37;99134.59;5052632;28;20033;-81
2021/06/21 03:43:24;;;;;;;16.35;6.50;;;;;;;19.63;65.12;99122.44;5047361;28;20037;-81
2021/06/21 03:45:52;;;;;;;17.15;5.85;;;;;;;19.55;65.30;99126.50;5050819;28;20063;-82
2021/06/21 03:48:19;;;;;;;23.23;6.68;;;;;;;19.50;65.61;99137.03;5051267;28;20170;-81
2021/06/21 03:50:45;;;;;;;17.33;5.97;;;;;;;19.54;65.53;99133.38;5050492;28;20025;-82
2021/06/21 03:53:13;;;;;;;7.22;5.63;;;;;;;19.42;65.71;99132.56;5051144;28;20417;-82
2021/06/21 03:55:39;;;;;;;21.73;6.30;;;;;;;19.30;65.99;99128.13;5050295;28;20040;-80
2021/06/21 03:58:05;;;;;;;9.50;6.55;;;;;;;19.22;66.58;99137.81;5048417;28;20033;-81
2021/06/21 04:00:32;;;;;;;7.80;5.85;;;;;;;19.20;66.80;99146.75;5049042;28;20039;-81
2021/06/21 04:02:58;;;;;;;9.40;6.20;;;;;;;19.10;66.89;99141.84;5048712;28;20021;-81
2021/06/21 04:05:25;;;;;;;9.23;6.43;;;;;;;19.17;66.97;99141.84;5038613;28;20415;-82
2021/06/21 04:07:52;;;;;;;8.30;6.07;;;;;;;19.20;67.14;99152.41;5044716;28;20462;-80
2021/06/21 04:10:21;;;;;;;9.55;5.97;;;;;;;19.22;66.72;99140.66;5036616;28;20418;-83
2021/06/21 04:12:48;;;;;;;9.23;6.32;;;;;;;19.24;66.67;99145.94;5045172;28;20046;-82
2021/06/21 04:15:15;;;;;;;17.48;6.70;;;;;;;19.18;66.70;99151.19;5051285;28;20048;-81
2021/06/21 04:17:42;;;;;;;12.50;6.45;;;;;;;19.03;67.82;99150.31;5036775;28;20045;-81
2021/06/21 04:20:15;;;;;;;12.77;6.07;;;;;;;18.95;68.38;99152.31;5049797;28;20052;-80
2021/06/21 04:22:41;;;;;;;9.23;6.07;;;;;;;19.02;68.19;99148.72;5050986;28;20486;-83
2021/06/21 04:25:09;;;;;;;12.68;7.22;;;;;;;19.22;68.13;99164.16;5035432;28;20057;-80
2021/06/21 04:27:35;;;;;;;11.18;6.97;;;;;;;19.20;68.41;99162.91;5049450;28;20040;-81
2021/06/21 04:30:01;;;;;;;10.73;5.60;;;;;;;19.22;68.28;99154.81;5046814;28;20032;-83
2021/06/21 04:32:27;;;;;;;8.65;6.35;;;;;;;19.34;68.55;99156.47;5050657;28;20032;-80
2021/06/21 04:34:53;;;;;;;17.45;6.80;;;;;;;19.48;68.11;99138.66;5049398;28;20029;-83
2021/06/21 04:37:18;;;;;;;10.70;6.38;;;;;;;19.50;68.03;99154.06;5050327;28;20029;-81
2021/06/21 04:39:44;;;;;;;15.55;6.65;;;;;;;19.54;68.00;99156.91;5050651;28;20033;-80
2021/06/21 04:42:09;;;;;;;10.85;5.88;;;;;;;19.49;67.79;99162.97;5049092;28;20066;-81
2021/06/21 04:44:35;;;;;;;6.28;5.20;;;;;;;19.62;66.98;99164.22;5050690;28;20479;-81
2021/06/21 04:47:00;;;;;;;14.45;6.57;;;;;;;19.65;67.36;99171.06;5050281;28;20115;-80
2021/06/21 04:49:26;;;;;;;13.07;6.07;;;;;;;19.75;67.55;99169.47;5050721;28;20104;-83
2021/06/21 04:51:51;;;;;;;6.47;5.53;;;;;;;19.85;66.30;99173.53;5050277;28;20487;-80
2021/06/21 04:54:17;;;;;;;7.68;5.68;;;;;;;19.83;65.63;99182.44;5050267;28;20024;-80
2021/06/21 04:56:43;;;;;;;7.10;5.05;;;;;;;19.81;66.23;99179.19;5045694;28;20038;-80
2021/06/21 04:59:08;;;;;;;12.52;6.45;;;;;;;19.99;65.63;99175.59;5046410;28;20052;-79
2021/06/21 05:01:34;;;;;;;7.22;6.53;;;;;;;19.95;65.79;99183.28;5050763;28;20037;-81
2021/06/21 05:04:01;;;;;;;12.73;6.05;;;;;;;19.97;65.56;99180.81;5048954;28;20075;-80
2021/06/21 05:06:27;;;;;;;10.65;6.03;;;;;;;19.90;66.33;99181.63;5049094;28;20411;-80
2021/06/21 05:08:54;;;;;;;10.15;5.47;;;;;;;20.05;65.76;99174.75;5049067;28;20064;-80
2021/06/21 05:11:19;;;;;;;6.18;5.45;;;;;;;20.10;66.14;99184.91;5048224;28;20032;-79
2021/06/21 05:13:45;;;;;;;7.57;5.22;;;;;;;20.23;64.88;99182.44;5043650;28;20036;-80
2021/06/21 05:16:11;;;;;;;7.05;5.68;;;;;;;20.28;65.25;99184.06;5054642;28;20025;-82
2021/06/21 05:18:37;;;;;;;7.55;5.38;;;;;;;20.47;64.78;99182.78;5049505;28;20052;-82
2021/06/21 05:21:03;;;;;;;8.63;6.07;;;;;;;20.43;64.53;99184.84;5048893;28;20112;-79
2021/06/21 05:23:28;;;;;;;6.75;5.55;;;;;;;20.36;64.45;99184.84;5054367;28;20048;-81
2021/06/21 05:25:54;;;;;;;10.52;6.43;;;;;;;20.20;65.16;99186.09;5054039;28;20041;-80
2021/06/21 05:28:19;;;;;;;10.80;6.20;;;;;;;20.37;65.96;99192.13;5053885;28;20024;-82
2021/06/21 05:30:45;;;;;;;6.95;6.32;;;;;;;20.52;64.81;99188.06;5052790;28;20384;-84
2021/06/21 05:33:10;;;;;;;9.65;5.65;;;;;;;20.68;65.16;99186.78;5053988;28;20058;-79
2021/06/21 05:35:36;;;;;;;8.50;5.95;;;;;;;20.82;64.58;99181.06;5052554;28;20039;-79
2021/06/21 05:38:01;;;;;;;8.65;5.38;;;;;;;20.90;64.32;99187.53;5053941;28;20029;-80
2021/06/21 05:40:27;;;;;;;8.05;5.90;;;;;;;20.94;63.93;99190.38;5053917;28;20083;-79
2021/06/21 05:42:52;;;;;;;11.02;6.60;;;;;;;21.01;64.28;99196.03;5049220;28;20060;-80
2021/06/21 05:45:18;;;;;;;11.07;6.18;;;;;;;21.16;63.97;99194.72;5046759;28;20626;-82
2021/06/21 05:47:44;;;;;;;9.15;6.03;;;;;;;21.24;63.13;99201.19;5053793;28;20029;-79
2021/06/21 05:50:11;;;;;;;13.60;6.00;;;;;;;21.28;62.53;99198.31;5053781;28;20033;-80
2021/06/21 05:52:36;;;;;;;11.77;6.05;;;;;;;21.32;62.33;99190.56;5052147;28;20079;-80
2021/06/21 05:55:02;;;;;;;9.20;6.28;;;;;;;21.22;62.45;99189.41;5052188;28;20033;-79
2021/06/21 05:57:30;;;;;;;8.23;6.00;;;;;;;21.30;62.31;99187.34;5053231;28;20036;-81
2021/06/21 05:59:55;;;;;;;10.52;5.80;;;;;;;21.34;61.63;99187.31;5052372;28;20417;-82
2021/06/21 06:02:22;;;;;;;8.30;5.40;;;;;;;21.26;60.41;99189.41;5051947;28;20112;-83
2021/06/21 06:04:47;;;;;;;6.38;5.78;;;;;;;21.35;60.23;99186.09;5052042;28;20135;-80
2021/06/21 06:07:13;;;;;;;7.45;5.18;;;;;;;21.45;60.94;99186.00;5052045;28;20116;-83
2021/06/21 06:09:39;;;;;;;7.50;5.30;;;;;;;21.63;60.29;99195.66;5052035;28;20037;-80
2021/06/21 06:12:05;;;;;;;14.38;5.72;;;;;;;21.58;60.60;99192.03;5053226;28;20119;-83
2021/06/21 06:14:32;;;;;;;14.15;5.63;;;;;;;21.74;59.89;99187.88;5053247;28;20025;-83
2021/06/21 06:16:58;;;;;;;23.05;5.43;;;;;;;21.94;60.98;99178.78;5051902;28;20521;-81
2021/06/21 06:19:24;;;;;;;9.43;5.07;;;;;;;21.98;59.05;99182.41;5051823;28;20418;-81
2021/06/21 06:21:50;;;;;;;12.43;5.30;;;;;;;22.11;59.19;99188.38;5052830;28;20032;-81
2021/06/21 06:24:15;;;;;;;6.75;4.95;;;;;;;22.07;59.37;99190.44;5053106;28;20029;-81
2021/06/21 06:26:43;;;;;;;8.25;4.55;;;;;;;22.22;57.85;99191.13;5052918;28;20254;-83
2021/06/21 06:29:12;;;;;;;5.93;4.93;;;;;;;22.54;58.04;99196.50;5052984;28;20056;-81
2021/06/21 06:31:41;;;;;;;4.73;4.33;;;;;;;22.65;56.25;99198.44;5051655;28;20037;-80
2021/06/21 06:34:06;;;;;;;6.90;4.28;;;;;;;22.73;56.28;99197.13;5051458;28;20443;-82
2021/06/21 06:36:32;;;;;;;7.63;4.25;;;;;;;22.37;55.76;99188.94;5051619;28;20025;-82
2021/06/21 06:38:57;;;;;;;5.07;4.28;;;;;;;22.48;57.68;99192.53;5052503;28;20491;-76
2021/06/21 06:41:23;;;;;;;8.52;5.15;;;;;;;22.71;55.84;99182.50;5053269;28;20099;-83
2021/06/21 06:43:48;;;;;;;4.45;3.97;;;;;;;22.78;54.73;99179.53;5051371;28;20071;-77
2021/06/21 06:46:14;;;;;;;18.13;5.43;;;;;;;23.10;54.71;99181.19;5051221;28;20090;-82
2021/06/21 06:48:39;;;;;;;5.63;4.05;;;;;;;23.12;54.67;99178.69;5052610;28;20025;-83
2021/06/21 06:51:05;;;;;;;4.45;4.05;;;;;;;22.65;57.62;99176.47;5051259;28;20590;-82
2021/06/21 06:59:06;;;;;;;5.88;4.03;;;;;;;23.15;56.88;99177.03;5051851;28;20044;-78
2021/06/21 07:01:31;;;;;;;5.82;3.85;;;;;;;23.68;52.70;99168.13;5047563;28;20495;-78
2021/06/21 07:03:57;;;;;;;4.35;3.97;;;;;;;23.72;52.58;99170.94;5046059;28;20025;-78
2021/06/21 07:06:22;;;;;;;10.82;4.28;;;;;;;23.76;53.18;99151.69;5050962;28;20033;-83
2021/06/21 07:08:48;;;;;;;5.45;4.43;;;;;;;24.02;53.17;99160.66;5048945;28;20044;-74
2021/06/21 07:11:15;;;;;;;7.75;4.32;;;;;;;24.18;51.56;99146.50;5051270;28;20029;-81
2021/06/21 07:13:40;;;;;;;5.97;4.30;;;;;;;24.07;51.33;99151.59;5047673;28;20028;-74
2021/06/21 07:16:06;;;;;;;7.63;4.45;;;;;;;24.19;52.37;99153.00;5039329;28;20033;-78
2021/06/21 07:18:32;;;;;;;9.40;4.00;;;;;;;24.29;51.11;99148.34;5047646;28;20125;-81
2021/06/21 07:20:58;;;;;;;5.22;3.88;;;;;;;24.26;51.68;99150.03;5048185;28;20403;-76
2021/06/21 07:23:23;;;;;;;7.60;3.78;;;;;;;24.21;51.27;99150.53;5043205;28;20026;-84
2021/06/21 07:25:49;;;;;;;7.28;3.95;;;;;;;24.36;50.87;99151.06;5042403;28;20029;-75
2021/06/21 07:28:16;;;;;;;4.70;3.75;;;;;;;24.01;53.81;99139.03;5044202;28;20021;-79
2021/06/21 07:30:44;;;;;;;4.25;3.85;;;;;;;24.47;50.88;99137.34;5036387;28;20025;-81
2021/06/21 07:33:10;;;;;;;4.00;3.70;;;;;;;24.64;50.78;99141.09;5041732;28;20030;-79
2021/06/21 07:35:36;;;;;;;8.00;3.65;;;;;;;24.61;50.00;99130.56;5032951;28;20041;-74
2021/06/21 07:38:02;;;;;;;5.40;3.78;;;;;;;24.65;50.26;99127.63;5033372;28;20061;-74
2021/06/21 07:40:28;;;;;;;6.68;3.83;;;;;;;24.65;51.63;99130.50;5035014;28;20037;-75
2021/06/21 07:42:53;;;;;;;4.95;3.80;;;;;;;24.65;49.71;99130.50;5033178;28;20044;-76
2021/06/21 07:45:19;;;;;;;4.18;3.80;;;;;;;24.90;49.08;99138.53;5039380;28;20483;-77
2021/06/21 07:47:44;;;;;;;6.18;3.78;;;;;;;24.93;48.28;99139.72;5049715;28;20099;-82
2021/06/21 07:50:10;;;;;;;7.18;3.75;;;;;;;24.88;50.34;99141.06;5042502;28;20040;-75
2021/06/21 07:52:36;;;;;;;4.82;3.97;;;;;;;25.07;49.68;99133.69;5049798;28;20029;-80
2021/06/21 07:55:01;;;;;;;38.10;5.00;;;;;;;25.20;49.90;99141.56;5043071;28;20091;-83
2021/06/21 07:57:28;;;;;;;6.97;3.58;;;;;;;25.43;49.61;99143.50;5049702;28;20040;-73
2021/06/21 07:59:54;;;;;;;4.82;3.80;;;;;;;25.54;50.35;99131.03;5044590;28;20040;-73
2021/06/21 08:02:20;;;;;;;7.60;4.38;;;;;;;25.50;49.34;99122.53;5040214;28;20104;-77
2021/06/21 08:04:47;;;;;;;4.78;4.18;;;;;;;25.69;47.49;99134.31;5045881;28;20120;-81
2021/06/21 08:07:14;;;;;;;4.57;4.03;;;;;;;25.91;48.29;99132.53;5046046;28;20029;-75
2021/06/21 08:09:40;;;;;;;4.45;3.55;;;;;;;26.06;47.24;99138.69;5043946;28;20037;-82
2021/06/21 08:12:06;;;;;;;7.65;4.53;;;;;;;26.24;47.08;99136.63;5044164;28;20028;-83
2021/06/21 08:14:32;;;;;;;8.30;5.18;;;;;;;25.90;48.21;99141.56;5042089;28;20045;-76
2021/06/21 08:16:58;;;;;;;7.82;4.38;;;;;;;25.81;48.97;99144.25;5045615;28;20025;-84
2021/06/21 08:19:23;;;;;;;8.55;5.07;;;;;;;25.63;50.00;99134.88;5033280;28;20055;-83
2021/06/21 08:21:49;;;;;;;6.60;4.68;;;;;;;26.13;48.78;99142.63;5033950;28;20052;-75
2021/06/21 08:24:14;;;;;;;4.95;4.50;;;;;;;25.22;50.50;99136.25;5037747;28;20044;-82
2021/06/21 08:26:40;;;;;;;5.68;4.45;;;;;;;25.18;51.79;99139.19;5045502;28;20108;-78
2021/06/21 08:29:05;;;;;;;4.40;3.90;;;;;;;25.74;50.54;99142.38;5049147;28;20028;-73
2021/06/21 08:31:31;;;;;;;7.50;5.22;;;;;;;26.05;49.35;99147.72;5044094;28;20048;-86
2021/06/21 08:33:57;;;;;;;8.52;5.80;;;;;;;26.33;48.89;99149.03;5037604;28;20043;-78
2021/06/21 08:36:22;;;;;;;4.82;4.10;;;;;;;26.47;48.55;99153.59;5041404;28;20064;-75
2021/06/21 08:38:48;;;;;;;6.97;4.10;;;;;;;26.46;47.95;99154.84;5043602;28;20033;-74
2021/06/21 08:41:14;;;;;;;4.35;3.95;;;;;;;26.49;48.20;99156.78;5041190;28;20055;-75
2021/06/21 08:43:40;;;;;;;9.50;3.97;;;;;;;26.51;48.21;99146.94;5048210;28;20060;-80
2021/06/21 08:46:09;;;;;;;6.00;4.07;;;;;;;26.32;50.73;99156.03;5049346;28;20115;-74
2021/06/21 08:48:41;;;;;;;7.45;4.20;;;;;;;26.40;49.44;99153.75;5048757;28;20029;-78
2021/06/21 08:51:06;;;;;;;7.40;4.10;;;;;;;26.21;51.11;99144.88;5049132;28;20118;-73
2021/06/21 08:53:32;;;;;;;4.25;3.88;;;;;;;26.02;51.37;99148.63;5048695;28;20031;-80
2021/06/21 08:55:58;;;;;;;5.07;4.57;;;;;;;26.18;51.22;99151.47;5049411;28;20029;-74
2021/06/21 08:58:23;;;;;;;4.78;4.15;;;;;;;26.64;49.81;99150.66;5050286;28;20403;-76
2021/06/21 09:00:49;;;;;;;5.68;4.32;;;;;;;26.41;52.70;99148.84;5048814;28;20132;-77
2021/06/21 09:03:16;;;;;;;4.18;3.78;;;;;;;26.41;51.92;99154.59;5050515;28;20105;-74
2021/06/21 09:05:42;;;;;;;3.95;3.63;;;;;;;26.19;51.58;99158.84;5050029;28;20048;-74
2021/06/21 09:08:08;;;;;;;4.60;4.20;;;;;;;26.39;51.52;99152.16;5034992;28;20100;-75
2021/06/21 09:10:36;;;;;;;4.97;4.57;;;;;;;26.75;51.37;99153.22;5050408;28;20036;-74
2021/06/21 09:13:08;;;;;;;6.25;4.07;;;;;;;26.61;51.46;99148.69;5049972;28;20483;-80
2021/06/21 09:15:38;;;;;;;7.50;4.75;;;;;;;26.93;49.52;99141.25;5050365;28;20057;-74
2021/06/21 09:18:27;;;;;;;5.15;4.00;;;;;;;26.78;50.87;99146.56;5049580;28;20487;-78
2021/06/21 09:21:26;;;;;;;6.00;4.07;;;;;;;26.89;51.06;99147.09;5042145;28;20029;-73
2021/06/21 09:23:57;;;;;;;3.50;3.20;;;;;;;27.19;49.33;99144.94;5038755;28;20044;-75
2021/06/21 09:26:28;;;;;;;5.65;3.45;;;;;;;27.32;48.47;99144.13;5044588;28;20373;-76
2021/06/21 09:28:55;;;;;;;7.25;4.25;;;;;;;27.59;46.75;99140.03;5046475;28;20025;-77
2021/06/21 09:31:22;;;;;;;3.95;3.53;;;;;;;27.87;46.33;99138.28;5049455;28;20033;-77
2021/06/21 09:33:48;;;;;;;5.47;4.70;;;;;;;27.92;47.51;99133.19;5047658;28;20051;-77
2021/06/21 09:36:30;;;;;;;6.88;3.67;;;;;;;27.39;47.58;99140.22;5047887;28;20037;-77
2021/06/21 09:39:16;;;;;;;4.43;3.92;;;;;;;27.77;47.52;99139.44;5048755;28;20037;-74
2021/06/21 09:41:41;;;;;;;6.05;4.30;;;;;;;27.95;46.16;99126.53;5048942;28;20108;-74
2021/06/21 09:44:07;;;;;;;8.73;4.05;;;;;;;28.01;47.28;99134.09;5048826;28;20100;-75
2021/06/21 09:46:32;;;;;;;4.45;3.67;;;;;;;27.83;47.03;99117.47;5049251;28;20029;-77
2021/06/21 09:48:58;;;;;;;9.00;4.30;;;;;;;28.30;46.25;99123.69;5042682;28;20025;-84
2021/06/21 09:51:28;;;;;;;6.22;4.40;;;;;;;28.08;46.77;99130.16;5047063;28;20025;-77
2021/06/21 09:54:06;;;;;;;7.03;4.63;;;;;;;28.12;46.86;99125.09;5044757;28;20068;-78
2021/06/21 09:56:52;;;;;;;7.45;5.50;;;;;;;28.58;44.81;99118.13;5048730;28;20029;-80
2021/06/21 09:59:29;;;;;;;7.47;4.53;;;;;;;28.70;44.07;99116.47;5043774;28;20040;-77
2021/06/21 10:02:06;;;;;;;8.73;4.68;;;;;;;28.42;43.29;99122.03;5038695;28;20124;-78
2021/06/21 10:04:34;;;;;;;7.28;3.78;;;;;;;28.35;45.41;99110.78;5043124;28;20128;-77
2021/06/21 10:06:59;;;;;;;3.53;3.22;;;;;;;28.21;45.62;99120.72;5036657;28;20746;-79
2021/06/21 10:09:25;;;;;;;8.60;4.40;;;;;;;28.45;45.20;99119.00;5036902;28;20167;-79
2021/06/21 10:11:51;;;;;;;6.32;4.55;;;;;;;28.57;44.38;99113.66;5049547;28;20078;-78
2021/06/21 10:14:19;;;;;;;10.07;4.32;;;;;;;29.02;42.90;99120.19;5049531;28;20021;-78
2021/06/21 10:16:49;;;;;;;8.65;4.15;;;;;;;28.71;42.22;99106.56;5048205;28;20064;-78
2021/06/21 10:19:15;;;;;;;4.38;3.80;;;;;;;29.12;42.18;99113.22;5041803;28;198336;-75
2021/06/21 10:21:44;;;;;;;4.03;3.53;;;;;;;29.20;43.71;99108.00;5045716;28;20139;-74
2021/06/21 10:24:10;;;;;;;3.38;3.17;;;;;;;29.30;42.39;99100.19;5043811;28;20539;-78
2021/06/21 10:26:41;;;;;;;5.07;3.30;;;;;;;29.75;40.85;99112.34;5047108;28;20028;-77
2021/06/21 10:29:07;;;;;;;11.02;3.95;;;;;;;29.66;40.69;99107.38;5049292;28;20037;-77
2021/06/21 10:31:34;;;;;;;6.60;2.78;;;;;;;29.31;41.09;99103.84;5048692;28;20498;-78
2021/06/21 10:34:02;;;;;;;4.13;2.70;;;;;;;29.02;42.30;99102.13;5036147;28;20028;-79
2021/06/21 10:36:46;;;;;;;3.08;2.88;;;;;;;29.05;42.16;99104.06;5041325;28;20032;-80
2021/06/21 10:39:33;;;;;;;4.28;2.83;;;;;;;29.04;43.69;99099.59;5046534;28;20120;-80
2021/06/21 10:42:05;;;;;;;3.30;2.90;;;;;;;28.96;43.19;99107.69;5051112;28;20092;-80
2021/06/21 10:44:38;;;;;;;3.25;2.75;;;;;;;29.24;42.25;99104.94;5049794;28;20029;-80
2021/06/21 10:47:41;;;;;;;3.40;2.92;;;;;;;29.43;41.17;99088.56;5046638;28;20017;-79
2021/06/21 10:50:19;;;;;;;2.83;2.63;;;;;;;29.24;41.01;99074.09;5050658;28;20067;-80
2021/06/21 10:52:53;;;;;;;2.70;2.50;;;;;;;29.76;38.04;99088.00;5048268;28;20418;-81
2021/06/21 10:55:32;;;;;;;3.30;3.00;;;;;;;29.63;40.95;99093.09;5052203;28;20155;-77
2021/06/21 10:58:09;;;;;;;3.63;2.85;;;;;;;29.93;35.92;99079.09;5050565;28;20050;-79
2021/06/21 11:00:44;;;;;;;2.50;2.30;;;;;;;30.38;37.05;99082.47;5050784;28;20065;-79
2021/06/21 11:05:55;;;;;;;2.63;2.40;;;;;;;29.90;38.92;99074.25;5048743;28;20041;-78
2021/06/21 11:08:27;;;;;;;2.95;2.70;;;;;;;29.83;40.08;99073.31;5050594;28;20036;-79
2021/06/21 11:10:58;;;;;;;3.28;2.50;;;;;;;29.87;38.32;99072.34;5051803;28;20029;-79
2021/06/21 11:13:33;;;;;;;5.60;2.70;;;;;;;30.30;38.62;99070.47;5051639;28;20071;-79
2021/06/21 11:16:18;;;;;;;2.40;2.20;;;;;;;30.22;36.93;99074.94;5051857;28;20032;-79
2021/06/21 11:18:46;;;;;;;2.95;2.65;;;;;;;30.34;37.06;99067.41;5050403;28;20576;-79
2021/06/21 11:21:14;;;;;;;2.45;2.25;;;;;;;30.75;36.01;99059.34;5051231;28;20037;-79
2021/06/21 11:23:42;;;;;;;11.07;2.92;;;;;;;30.71;38.57;99063.69;5040203;28;20029;-79
2021/06/21 11:26:08;;;;;;;4.20;2.70;;;;;;;30.34;38.09;99064.50;5052281;28;20029;-79
2021/06/21 11:28:42;;;;;;;8.13;2.50;;;;;;;30.71;37.79;99050.06;5047990;28;20410;-79
2021/06/21 11:31:23;;;;;;;6.55;2.58;;;;;;;30.79;36.68;99059.97;5047537;28;20629;-79
2021/06/21 11:34:09;;;;;;;10.63;2.75;;;;;;;30.74;36.34;99051.97;5044498;28;20045;-79
2021/06/21 11:36:36;;;;;;;5.13;2.72;;;;;;;30.09;37.94;99044.19;5046727;28;20051;-79
2021/06/21 11:39:25;;;;;;;3.55;2.95;;;;;;;29.79;39.17;99046.69;5050880;28;20082;-79
2021/06/21 11:42:14;;;;;;;3.45;2.85;;;;;;;29.25;40.46;99051.84;5049697;28;20207;-78
2021/06/21 11:44:40;;;;;;;3.08;2.85;;;;;;;29.18;40.85;99052.94;5051034;28;20474;-79
2021/06/21 11:47:14;;;;;;;5.15;2.83;;;;;;;29.43;39.67;99065.53;5050914;28;20035;-78